createdAt,value
2018-03-18T00:04:04.734Z,-3.20
2018-03-18T00:08:55.635Z,-3.30
2018-03-18T00:13:47.294Z,-3.40
2018-03-18T00:18:38.936Z,-3.40
2018-03-18T00:23:30.582Z,-3.40
2018-03-18T00:28:21.477Z,-3.40
2018-03-18T00:33:12.385Z,-3.50
2018-03-18T00:38:03.324Z,-3.50
2018-03-18T00:42:54.228Z,-3.50
2018-03-18T00:47:45.882Z,-3.60
2018-03-18T00:52:36.806Z,-3.60
2018-03-18T00:57:27.709Z,-3.60
2018-03-18T01:02:20.073Z,-3.70
2018-03-18T01:07:10.992Z,-3.70
2018-03-18T01:12:01.890Z,-3.70
2018-03-18T01:16:52.807Z,-3.70
2018-03-18T01:21:43.710Z,-3.80
2018-03-18T01:26:34.652Z,-3.80
2018-03-18T01:31:25.554Z,-3.70
2018-03-18T01:36:17.209Z,-3.90
2018-03-18T01:41:08.876Z,-3.90
2018-03-18T01:46:00.533Z,-3.90
2018-03-18T01:50:52.170Z,-3.90
2018-03-18T01:55:43.063Z,-4.00
2018-03-18T02:00:33.949Z,-4.00
2018-03-18T02:05:25.578Z,-4.00
2018-03-18T02:10:16.495Z,-4.10
2018-03-18T02:15:07.393Z,-4.10
2018-03-18T02:19:58.273Z,-4.10
2018-03-18T02:24:49.173Z,-4.10
2018-03-18T02:29:40.068Z,-4.20
2018-03-18T02:34:30.966Z,-4.20
2018-03-18T02:39:22.597Z,-4.30
2018-03-18T02:44:13.479Z,-4.30
2018-03-18T02:49:04.381Z,-4.30
2018-03-18T02:53:56.050Z,-4.30
2018-03-18T02:58:46.933Z,-4.40
2018-03-18T03:03:38.572Z,-4.40
2018-03-18T03:08:29.453Z,-4.40
2018-03-18T03:13:20.359Z,-4.40
2018-03-18T03:18:11.240Z,-4.40
2018-03-18T03:23:02.125Z,-4.40
2018-03-18T03:27:53.061Z,-4.50
2018-03-18T03:32:43.941Z,-4.50
2018-03-18T03:37:34.853Z,-4.50
2018-03-18T03:42:25.737Z,-4.50
2018-03-18T03:47:17.361Z,-4.60
2018-03-18T03:52:08.254Z,-4.60
2018-03-18T03:56:59.150Z,-4.60
2018-03-18T04:01:50.064Z,-4.70
2018-03-18T04:06:40.943Z,-4.70
2018-03-18T04:11:31.863Z,-4.70
2018-03-18T04:16:22.790Z,-4.70
2018-03-18T04:21:13.681Z,-4.80
2018-03-18T04:26:05.376Z,-4.80
2018-03-18T04:30:56.268Z,-4.80
2018-03-18T04:35:47.169Z,-4.80
2018-03-18T04:40:38.087Z,-4.90
2018-03-18T04:45:28.989Z,-4.90
2018-03-18T04:50:19.881Z,-4.90
2018-03-18T04:55:11.535Z,-4.90
2018-03-18T05:00:02.430Z,-4.90
2018-03-18T05:04:53.339Z,-5.00
2018-03-18T05:09:44.251Z,-5.00
2018-03-18T05:14:35.153Z,-5.00
2018-03-18T05:19:26.053Z,-5.00
2018-03-18T05:24:16.959Z,-5.00
2018-03-18T05:29:07.849Z,-5.00
2018-03-18T05:33:58.759Z,-5.00
2018-03-18T05:38:50.401Z,-5.10
2018-03-18T05:43:42.038Z,-5.10
2018-03-18T05:48:32.937Z,-5.10
2018-03-18T05:53:23.829Z,-5.10
2018-03-18T05:58:14.721Z,-5.10
2018-03-18T06:03:05.738Z,-5.10
2018-03-18T06:07:56.629Z,-5.00
2018-03-18T06:12:47.547Z,-5.00
2018-03-18T06:17:39.173Z,-5.00
2018-03-18T06:22:30.812Z,-4.90
2018-03-18T06:27:21.712Z,-5.00
2018-03-18T06:32:12.610Z,-4.90
2018-03-18T06:37:03.517Z,-4.90
2018-03-18T06:41:54.469Z,-4.80
2018-03-18T06:46:45.406Z,-4.80
2018-03-18T06:51:36.347Z,-4.70
2018-03-18T06:56:27.249Z,-4.70
2018-03-18T07:01:18.771Z,-4.60
2018-03-18T07:06:09.711Z,-4.50
2018-03-18T07:11:00.635Z,-4.50
2018-03-18T07:15:51.530Z,-4.40
2018-03-18T07:20:43.157Z,-4.30
2018-03-18T07:25:34.100Z,-4.30
2018-03-18T07:30:24.971Z,-4.20
2018-03-18T07:35:15.877Z,-4.10
2018-03-18T07:40:06.815Z,-4.00
2018-03-18T07:44:57.726Z,-4.00
2018-03-18T07:49:48.611Z,-3.90
2018-03-18T07:54:40.240Z,-3.80
2018-03-18T07:59:31.141Z,-3.80
2018-03-18T08:04:22.063Z,-3.80
2018-03-18T08:09:12.970Z,-3.70
2018-03-18T08:14:05.182Z,-3.60
2018-03-18T08:18:56.045Z,-3.60
2018-03-18T08:23:46.943Z,-3.50
2018-03-18T08:28:37.829Z,-3.40
2018-03-18T08:33:29.573Z,-3.20
2018-03-18T08:38:20.557Z,-3.20
2018-03-18T08:43:11.454Z,-3.00
2018-03-18T08:48:03.081Z,-2.60
2018-03-18T08:52:54.111Z,-2.60
2018-03-18T08:57:45.011Z,-2.40
2018-03-18T09:02:35.945Z,-2.20
2018-03-18T09:07:26.885Z,-2.00
2018-03-18T09:12:17.777Z,-1.80
2018-03-18T09:17:09.462Z,-1.40
2018-03-18T09:22:00.378Z,-1.40
2018-03-18T09:26:51.319Z,-1.30
2018-03-18T09:31:42.233Z,-1.10
2018-03-18T09:36:33.186Z,-1.00
2018-03-18T09:41:24.099Z,-1.00
2018-03-18T09:46:14.993Z,-0.90
2018-03-18T09:51:05.880Z,-0.90
2018-03-18T09:55:56.791Z,-0.80
2018-03-18T10:00:47.910Z,-0.80
2018-03-18T10:05:38.837Z,-0.70
2018-03-18T10:10:29.741Z,-0.60
2018-03-18T10:15:20.634Z,-0.50
2018-03-18T10:20:11.645Z,-0.50
2018-03-18T10:25:02.477Z,-0.40
2018-03-18T10:29:54.109Z,-0.30
2018-03-18T10:34:45.129Z,-0.30
2018-03-18T10:39:36.043Z,-0.20
2018-03-18T10:44:26.930Z,-0.10
2018-03-18T10:49:17.834Z,0.10
2018-03-18T10:54:09.499Z,0.50
2018-03-18T10:59:00.390Z,0.40
2018-03-18T11:03:58.269Z,1.00
2018-03-18T11:08:49.178Z,1.00
2018-03-18T11:13:40.071Z,1.30
2018-03-18T11:18:30.965Z,1.60
2018-03-18T11:23:21.869Z,2.00
2018-03-18T11:28:12.783Z,2.40
2018-03-18T11:33:03.696Z,3.00
2018-03-18T11:37:54.600Z,3.60
2018-03-18T11:42:46.289Z,4.70
2018-03-18T11:47:37.205Z,4.70
2018-03-18T11:52:28.105Z,5.20
2018-03-18T11:57:19.756Z,6.30
2018-03-18T12:02:10.656Z,6.20
2018-03-18T12:07:01.547Z,6.70
2018-03-18T12:11:52.451Z,7.20
2018-03-18T12:16:44.146Z,8.00
2018-03-18T12:21:35.029Z,8.00
2018-03-18T12:26:26.662Z,8.80
2018-03-18T12:31:18.319Z,9.00
2018-03-18T12:36:09.963Z,9.20
2018-03-18T12:41:01.601Z,9.40
2018-03-18T12:45:53.293Z,9.60
2018-03-18T12:50:44.185Z,9.60
2018-03-18T12:55:35.083Z,9.70
2018-03-18T13:00:25.981Z,9.80
2018-03-18T13:05:16.873Z,9.80
2018-03-18T13:10:07.769Z,9.60
2018-03-18T13:14:58.654Z,9.40
2018-03-18T13:19:49.546Z,9.20
2018-03-18T13:24:41.241Z,8.90
2018-03-18T13:29:32.165Z,8.90
2018-03-18T13:34:23.060Z,8.80
2018-03-18T13:39:14.680Z,8.40
2018-03-18T13:44:05.559Z,8.40
2018-03-18T13:48:56.450Z,8.10
2018-03-18T13:53:47.333Z,7.90
2018-03-18T13:58:38.225Z,7.60
2018-03-18T14:03:29.860Z,7.20
2018-03-18T14:08:21.484Z,7.00
2018-03-18T14:13:12.399Z,7.00
2018-03-18T14:18:03.293Z,6.80
2018-03-18T14:22:54.187Z,6.80
2018-03-18T14:27:45.824Z,6.70
2018-03-18T14:32:36.717Z,6.70
2018-03-18T14:37:27.661Z,6.70
2018-03-18T14:42:19.241Z,6.50
2018-03-18T14:47:10.203Z,6.50
2018-03-18T14:52:01.097Z,6.50
2018-03-18T14:56:52.733Z,6.30
2018-03-18T15:01:43.630Z,6.30
2018-03-18T15:06:34.517Z,6.20
2018-03-18T15:11:25.412Z,6.20
2018-03-18T15:16:17.033Z,6.10
2018-03-18T15:21:07.929Z,6.10
2018-03-18T15:25:58.821Z,6.10
2018-03-18T15:30:50.480Z,5.80
2018-03-18T15:35:41.370Z,5.80
2018-03-18T15:40:32.253Z,5.60
2018-03-18T15:45:23.133Z,5.50
2018-03-18T15:50:14.753Z,5.00
2018-03-18T15:55:05.625Z,5.00
2018-03-18T15:59:56.515Z,4.70
2018-03-18T16:04:48.130Z,4.10
2018-03-18T16:09:39.017Z,4.00
2018-03-18T16:14:29.917Z,3.70
2018-03-18T16:19:20.797Z,3.50
2018-03-18T16:24:11.691Z,3.20
2018-03-18T16:29:14.982Z,2.90
2018-03-18T16:34:05.924Z,2.70
2018-03-18T16:38:56.823Z,2.40
2018-03-18T16:43:47.718Z,2.20
2018-03-18T16:48:38.640Z,2.00
2018-03-18T16:53:29.546Z,1.80
2018-03-18T16:58:21.180Z,1.40
2018-03-18T17:03:12.809Z,1.30
2018-03-18T17:08:03.690Z,1.20
2018-03-18T17:12:54.587Z,1.10
2018-03-18T17:17:45.543Z,0.90
2018-03-18T17:22:36.439Z,0.80
2018-03-18T17:27:27.339Z,0.60
2018-03-18T17:32:18.221Z,0.50
2018-03-18T17:37:09.101Z,0.30
2018-03-18T17:42:00.731Z,0.10
2018-03-18T17:47:04.229Z,0.10
2018-03-18T17:52:08.613Z,-0.10
2018-03-18T17:57:00.244Z,-0.30
2018-03-18T18:01:52.001Z,-0.40
2018-03-18T18:06:43.670Z,-0.50
2018-03-18T18:11:34.581Z,-0.50
2018-03-18T18:16:26.269Z,-0.70
2018-03-18T18:21:17.157Z,-0.70
2018-03-18T18:26:08.845Z,-0.80
2018-03-18T18:30:59.728Z,-0.90
2018-03-18T18:35:51.372Z,-1.00
2018-03-18T18:40:42.315Z,-1.00
2018-03-18T18:45:33.953Z,-1.10
2018-03-18T18:50:25.643Z,-1.20
2018-03-18T18:55:16.533Z,-1.20
2018-03-18T19:00:07.435Z,-1.20
2018-03-18T19:04:58.326Z,-1.30
2018-03-18T19:09:49.222Z,-1.30
2018-03-18T19:14:40.865Z,-1.40
2018-03-18T19:19:32.504Z,-1.50
2018-03-18T19:24:24.136Z,-1.50
2018-03-18T19:29:15.038Z,-1.50
2018-03-18T19:34:05.934Z,-1.60
2018-03-18T19:38:57.595Z,-1.60
2018-03-18T19:43:48.504Z,-1.60
2018-03-18T19:48:40.145Z,-1.70
2018-03-18T19:53:31.777Z,-1.80
2018-03-18T19:58:22.707Z,-1.80
2018-03-18T20:03:13.607Z,-1.80
2018-03-18T20:08:04.501Z,-1.80
2018-03-18T20:12:56.136Z,-1.90
2018-03-18T20:17:47.761Z,-1.90
2018-03-18T20:22:38.655Z,-2.00
2018-03-18T20:27:29.615Z,-2.00
2018-03-18T20:32:20.639Z,-2.00
2018-03-18T20:37:11.629Z,-2.00
2018-03-18T20:42:02.527Z,-2.10
2018-03-18T20:46:54.342Z,-2.20
2018-03-18T20:51:46.712Z,-2.20
2018-03-18T20:56:37.698Z,-2.20
2018-03-18T21:01:28.591Z,-2.20
2018-03-18T21:06:20.221Z,-2.30
2018-03-18T21:11:11.857Z,-2.30
2018-03-18T21:16:03.487Z,-2.30
2018-03-18T21:20:54.361Z,-2.40
2018-03-18T21:25:46.728Z,-2.40
2018-03-18T21:30:37.653Z,-2.40
2018-03-18T21:35:28.553Z,-2.40
2018-03-18T21:40:20.181Z,-2.50
2018-03-18T21:45:11.821Z,-2.60
2018-03-18T21:50:02.724Z,-2.60
2018-03-18T21:54:54.469Z,-2.60
2018-03-18T21:59:45.363Z,-2.60
2018-03-18T22:04:36.327Z,-2.60
2018-03-18T22:09:27.295Z,-2.70
2018-03-18T22:14:19.096Z,-2.80
2018-03-18T22:19:10.003Z,-2.80
2018-03-18T22:24:15.871Z,-2.80
2018-03-18T22:29:07.554Z,-2.80
2018-03-18T22:33:59.171Z,-2.90
2018-03-18T22:38:50.851Z,-2.90
2018-03-18T22:43:41.745Z,-2.90
2018-03-18T22:48:32.636Z,-2.90
2018-03-18T22:53:23.557Z,-2.90
2018-03-18T22:58:14.461Z,-3.00
2018-03-18T23:03:05.350Z,-3.00
2018-03-18T23:07:56.241Z,-3.00
2018-03-18T23:12:47.145Z,-3.10
2018-03-18T23:17:38.043Z,-3.10
2018-03-18T23:22:29.673Z,-3.10
2018-03-18T23:27:20.625Z,-3.20
2018-03-18T23:32:12.240Z,-3.20
2018-03-18T23:37:03.149Z,-3.20
2018-03-18T23:41:54.055Z,-3.30
2018-03-18T23:46:44.966Z,-3.30
2018-03-18T23:51:35.861Z,-3.30
2018-03-18T23:56:28.233Z,-3.40
